createdAt,value
2023-02-10T00:01:33.778Z,2.85
2023-02-10T00:04:00.420Z,3.20
2023-02-10T00:06:28.209Z,4.30
2023-02-10T00:09:00.104Z,3.05
2023-02-10T00:11:46.486Z,4.07
2023-02-10T00:14:14.934Z,2.88
2023-02-10T00:16:41.658Z,3.25
2023-02-10T00:19:08.277Z,3.22
2023-02-10T00:21:35.287Z,3.40
2023-02-10T00:24:01.989Z,3.28
2023-02-10T00:26:28.720Z,3.65
2023-02-10T00:28:55.239Z,3.97
2023-02-10T00:31:22.559Z,3.97
2023-02-10T00:33:49.427Z,4.10
2023-02-10T00:36:16.804Z,2.88
2023-02-10T00:38:44.666Z,3.60
2023-02-10T00:41:15.169Z,3.15
2023-02-10T00:43:43.469Z,3.83
2023-02-10T00:48:37.908Z,3.13
2023-02-10T00:51:05.413Z,5.03
2023-02-10T00:53:32.782Z,3.17
2023-02-10T00:55:59.388Z,2.35
2023-02-10T00:58:27.006Z,3.88
2023-02-10T01:00:55.036Z,2.83
2023-02-10T01:03:22.221Z,4.43
2023-02-10T01:05:49.233Z,5.07
2023-02-10T01:08:16.760Z,5.93
2023-02-10T01:10:43.549Z,3.53
2023-02-10T01:13:12.185Z,3.85
2023-02-10T01:15:47.610Z,2.10
2023-02-10T01:18:15.073Z,2.65
2023-02-10T01:20:42.826Z,2.15
2023-02-10T01:23:10.444Z,2.72
2023-02-10T01:25:38.287Z,5.18
2023-02-10T01:28:06.079Z,3.45
2023-02-10T01:30:33.465Z,4.13
2023-02-10T01:33:00.053Z,2.70
2023-02-10T01:35:27.082Z,4.60
2023-02-10T01:37:55.285Z,2.83
2023-02-10T01:40:23.276Z,5.07
2023-02-10T01:42:51.675Z,3.20
2023-02-10T01:45:39.551Z,3.50
2023-02-10T01:48:08.920Z,2.10
2023-02-10T01:50:40.750Z,3.25
2023-02-10T01:53:07.585Z,2.63
2023-02-10T01:55:37.693Z,3.03
2023-02-10T01:58:07.395Z,3.58
2023-02-10T02:00:34.036Z,2.60
2023-02-10T02:03:02.135Z,4.13
2023-02-10T02:05:33.129Z,3.97
2023-02-10T02:08:14.402Z,3.25
2023-02-10T02:11:11.297Z,2.58
2023-02-10T02:14:02.424Z,3.67
2023-02-10T02:17:07.559Z,3.17
2023-02-10T02:19:47.561Z,5.75
2023-02-10T02:22:33.848Z,2.67
2023-02-10T02:25:20.112Z,2.92
2023-02-10T02:27:59.783Z,2.45
2023-02-10T02:30:41.808Z,2.90
2023-02-10T02:33:14.345Z,7.15
2023-02-10T02:35:50.945Z,4.30
2023-02-10T02:38:17.672Z,2.90
2023-02-10T02:40:44.361Z,4.13
2023-02-10T02:43:11.209Z,3.10
2023-02-10T02:46:05.287Z,2.10
2023-02-10T02:48:41.336Z,5.30
2023-02-10T02:51:31.371Z,2.60
2023-02-10T02:54:39.819Z,2.83
2023-02-10T02:57:11.227Z,3.72
2023-02-10T02:59:52.628Z,2.60
2023-02-10T03:02:21.712Z,2.75
2023-02-10T03:04:50.019Z,3.95
2023-02-10T03:07:16.606Z,5.80
2023-02-10T03:09:44.793Z,3.92
2023-02-10T03:12:13.341Z,4.32
2023-02-10T03:14:40.580Z,4.68
2023-02-10T03:17:07.199Z,3.38
2023-02-10T03:19:33.798Z,3.83
2023-02-10T03:22:00.510Z,2.90
2023-02-10T03:24:27.177Z,4.75
2023-02-10T03:26:53.748Z,2.90
2023-02-10T03:29:20.374Z,3.88
2023-02-10T03:31:47.023Z,3.08
2023-02-10T03:34:13.673Z,2.15
2023-02-10T03:36:40.372Z,2.25
2023-02-10T03:39:07.062Z,2.88
2023-02-10T03:41:33.696Z,2.95
2023-02-10T03:44:00.400Z,3.38
2023-02-10T03:46:27.027Z,1.33
2023-02-10T03:48:53.712Z,2.72
2023-02-10T03:51:20.581Z,4.35
2023-02-10T03:53:47.210Z,4.25
2023-02-10T03:56:13.778Z,2.40
2023-02-10T03:58:40.398Z,2.17
2023-02-10T04:01:13.059Z,2.40
2023-02-10T04:03:40.099Z,3.25
2023-02-10T04:06:07.745Z,2.92
2023-02-10T04:08:34.534Z,3.47
2023-02-10T04:11:01.230Z,3.85
2023-02-10T04:13:27.932Z,2.58
2023-02-10T04:16:04.870Z,3.50
2023-02-10T04:18:31.819Z,2.42
2023-02-10T04:20:58.804Z,3.42
2023-02-10T04:23:25.489Z,3.05
2023-02-10T04:25:52.115Z,3.80
2023-02-10T04:28:19.388Z,4.43
2023-02-10T04:30:46.084Z,2.50
2023-02-10T04:33:12.865Z,3.35
2023-02-10T04:35:39.480Z,3.22
2023-02-10T04:38:06.159Z,4.78
2023-02-10T04:40:32.753Z,2.17
2023-02-10T04:42:59.362Z,4.03
2023-02-10T04:45:25.988Z,3.60
2023-02-10T04:47:52.704Z,3.28
2023-02-10T04:50:19.520Z,4.13
2023-02-10T04:52:46.125Z,1.80
2023-02-10T04:55:12.724Z,4.22
2023-02-10T04:57:39.312Z,3.78
2023-02-10T05:00:06.562Z,3.25
2023-02-10T05:02:33.182Z,2.65
2023-02-10T05:04:59.808Z,1.60
2023-02-10T05:07:26.618Z,2.97
2023-02-10T05:09:53.280Z,3.08
2023-02-10T05:12:19.856Z,4.10
2023-02-10T05:14:46.430Z,3.25
2023-02-10T05:17:13.263Z,1.92
2023-02-10T05:19:40.047Z,3.08
2023-02-10T05:22:06.635Z,3.05
2023-02-10T05:24:33.473Z,4.32
2023-02-10T05:27:00.128Z,4.15
2023-02-10T05:29:26.796Z,2.95
2023-02-10T05:31:53.443Z,2.33
2023-02-10T05:34:20.186Z,2.78
2023-02-10T05:36:46.897Z,1.98
2023-02-10T05:39:25.990Z,4.45
2023-02-10T05:41:58.286Z,2.80
2023-02-10T05:44:30.018Z,2.80
2023-02-10T05:46:57.023Z,2.63
2023-02-10T05:49:23.658Z,2.15
2023-02-10T05:51:52.250Z,2.72
2023-02-10T05:54:19.119Z,2.72
2023-02-10T05:56:46.397Z,3.47
2023-02-10T05:59:15.626Z,3.28
2023-02-10T06:01:43.380Z,2.50
2023-02-10T06:04:10.249Z,2.97
2023-02-10T06:06:37.258Z,3.83
2023-02-10T06:09:04.540Z,3.00
2023-02-10T06:11:31.165Z,3.20
2023-02-10T06:13:57.809Z,3.00
2023-02-10T06:16:24.586Z,2.10
2023-02-10T06:18:51.303Z,2.65
2023-02-10T06:21:18.072Z,2.78
2023-02-10T06:23:45.915Z,3.88
2023-02-10T06:26:12.674Z,1.92
2023-02-10T06:28:39.288Z,1.65
2023-02-10T06:31:06.125Z,2.67
2023-02-10T06:33:34.512Z,2.85
2023-02-10T06:36:03.344Z,3.55
2023-02-10T06:38:29.906Z,3.10
2023-02-10T06:40:56.539Z,3.70
2023-02-10T06:43:23.124Z,2.85
2023-02-10T06:45:50.060Z,3.15
2023-02-10T06:48:16.931Z,3.15
2023-02-10T06:50:43.532Z,2.85
2023-02-10T06:53:10.135Z,3.45
2023-02-10T06:55:36.900Z,3.50
2023-02-10T06:58:04.644Z,3.95
2023-02-10T07:00:33.299Z,3.40
2023-02-10T07:02:59.914Z,4.47
2023-02-10T07:05:26.534Z,3.80
2023-02-10T07:07:54.944Z,5.20
2023-02-10T07:12:48.699Z,2.40
2023-02-10T07:15:15.440Z,3.47
2023-02-10T07:17:42.000Z,3.22
2023-02-10T07:20:09.260Z,2.40
2023-02-10T07:22:35.824Z,5.40
2023-02-10T07:25:02.379Z,3.60
2023-02-10T07:27:28.990Z,4.88
2023-02-10T07:29:55.553Z,4.22
2023-02-10T07:32:22.186Z,5.75
2023-02-10T07:34:50.556Z,2.78
2023-02-10T07:37:17.220Z,6.35
2023-02-10T07:39:43.980Z,4.80
2023-02-10T07:42:10.657Z,5.70
2023-02-10T07:44:56.761Z,4.85
2023-02-10T07:47:23.299Z,4.88
2023-02-10T07:49:49.893Z,5.57
2023-02-10T07:52:16.422Z,6.28
2023-02-10T07:54:43.034Z,6.30
2023-02-10T07:57:09.853Z,7.15
2023-02-10T07:59:36.539Z,6.25
2023-02-10T08:02:03.242Z,6.85
2023-02-10T08:04:31.943Z,7.45
2023-02-10T08:06:58.559Z,8.05
2023-02-10T08:09:25.083Z,6.97
2023-02-10T08:11:51.658Z,8.30
2023-02-10T08:14:18.199Z,7.63
2023-02-10T08:16:44.843Z,7.70
2023-02-10T08:19:11.464Z,9.25
2023-02-10T08:21:38.124Z,8.73
2023-02-10T08:24:04.847Z,7.65
2023-02-10T08:26:31.436Z,9.00
2023-02-10T08:29:00.480Z,7.95
2023-02-10T08:31:28.019Z,8.80
2023-02-10T08:33:54.676Z,9.60
2023-02-10T08:36:22.271Z,7.88
2023-02-10T08:38:50.598Z,8.85
2023-02-10T08:41:17.437Z,8.48
2023-02-10T08:43:44.591Z,10.48
2023-02-10T08:46:11.718Z,9.32
2023-02-10T08:48:38.556Z,9.23
2023-02-10T08:51:10.177Z,10.65
2023-02-10T08:53:37.179Z,10.13
2023-02-10T08:56:09.601Z,9.52
2023-02-10T08:58:36.634Z,9.88
2023-02-10T09:01:10.513Z,9.35
2023-02-10T09:03:38.612Z,6.90
2023-02-10T09:06:05.310Z,7.63
2023-02-10T09:08:32.344Z,7.63
2023-02-10T09:10:58.919Z,9.05
2023-02-10T09:13:25.531Z,9.27
2023-02-10T09:15:52.151Z,7.95
2023-02-10T09:18:18.905Z,7.68
2023-02-10T09:20:45.594Z,8.27
2023-02-10T09:23:12.180Z,8.65
2023-02-10T09:25:38.754Z,9.20
2023-02-10T09:28:05.747Z,9.60
2023-02-10T09:30:32.509Z,9.60
2023-02-10T09:32:59.142Z,9.65
2023-02-10T09:35:25.775Z,8.30
2023-02-10T09:37:52.307Z,9.15
2023-02-10T09:40:25.477Z,8.88
2023-02-10T09:43:10.953Z,7.90
2023-02-10T09:45:40.375Z,9.20
2023-02-10T09:48:52.753Z,9.07
2023-02-10T09:51:43.393Z,8.30
2023-02-10T09:54:11.828Z,8.07
2023-02-10T09:56:39.308Z,8.82
2023-02-10T09:59:07.306Z,7.22
2023-02-10T10:01:39.721Z,8.10
2023-02-10T10:04:15.199Z,7.15
2023-02-10T10:06:51.129Z,7.57
2023-02-10T10:09:39.002Z,8.15
2023-02-10T10:12:05.842Z,8.32
2023-02-10T10:14:40.956Z,8.35
2023-02-10T10:17:27.051Z,8.35
2023-02-10T10:20:15.427Z,8.50
2023-02-10T10:23:08.993Z,7.95
2023-02-10T10:25:48.005Z,8.10
2023-02-10T10:28:41.180Z,9.18
2023-02-10T10:31:10.668Z,9.18
2023-02-10T10:33:51.883Z,7.60
2023-02-10T10:36:32.666Z,7.15
2023-02-10T10:39:04.833Z,7.70
2023-02-10T10:41:33.475Z,9.52
2023-02-10T10:44:00.050Z,9.85
2023-02-10T10:46:49.226Z,8.63
2023-02-10T10:49:16.609Z,8.77
2023-02-10T10:51:43.379Z,8.68
2023-02-10T10:54:17.883Z,8.38
2023-02-10T10:56:49.107Z,8.98
2023-02-10T10:59:20.913Z,8.75
2023-02-10T11:01:49.678Z,7.28
2023-02-10T11:04:20.745Z,8.00
2023-02-10T11:06:54.626Z,8.95
2023-02-10T11:09:35.616Z,6.28
2023-02-10T11:12:21.089Z,6.40
2023-02-10T11:14:54.522Z,6.80
2023-02-10T11:19:58.780Z,6.03
2023-02-10T11:22:25.713Z,7.35
2023-02-10T11:24:57.952Z,7.43
2023-02-10T11:27:25.456Z,6.93
2023-02-10T11:29:52.062Z,6.68
2023-02-10T11:32:27.650Z,7.25
2023-02-10T11:34:57.594Z,7.05
2023-02-10T11:37:34.268Z,7.57
2023-02-10T11:40:03.203Z,7.82
2023-02-10T11:42:34.212Z,7.93
2023-02-10T11:45:18.154Z,7.65
2023-02-10T11:47:48.017Z,6.50
2023-02-10T11:50:23.188Z,7.00
2023-02-10T11:52:49.987Z,7.40
2023-02-10T11:55:17.275Z,6.93
2023-02-10T11:58:28.576Z,7.68
2023-02-10T12:01:02.563Z,7.15
2023-02-10T12:03:35.894Z,7.60
2023-02-10T12:06:36.283Z,7.70
2023-02-10T12:09:30.340Z,6.85
2023-02-10T12:12:18.601Z,6.20
2023-02-10T12:15:03.825Z,6.97
2023-02-10T12:18:07.936Z,6.63
2023-02-10T12:20:43.255Z,7.20
2023-02-10T12:23:15.647Z,6.22
2023-02-10T12:26:20.755Z,6.05
2023-02-10T12:29:11.346Z,7.03
2023-02-10T12:32:15.287Z,6.25
2023-02-10T12:34:51.239Z,6.95
2023-02-10T12:37:35.887Z,5.35
2023-02-10T12:40:22.701Z,6.18
2023-02-10T12:42:54.118Z,5.28
2023-02-10T12:45:26.858Z,6.32
2023-02-10T12:48:16.682Z,5.40
2023-02-10T12:51:01.874Z,6.88
2023-02-10T12:53:37.909Z,5.93
2023-02-10T12:56:09.072Z,5.82
2023-02-10T12:58:43.053Z,6.60
2023-02-10T13:01:26.220Z,6.43
2023-02-10T13:04:04.458Z,6.30
2023-02-10T13:06:42.905Z,5.93
2023-02-10T13:09:20.754Z,6.10
2023-02-10T13:12:15.389Z,6.22
2023-02-10T13:14:43.886Z,6.00
2023-02-10T13:17:11.515Z,5.93
2023-02-10T13:19:47.953Z,5.45
2023-02-10T13:22:32.743Z,5.60
2023-02-10T13:25:12.481Z,5.90
2023-02-10T13:27:54.092Z,6.25
2023-02-10T13:30:45.011Z,5.28
2023-02-10T13:33:33.370Z,5.55
2023-02-10T13:36:00.553Z,5.57
2023-02-10T13:38:33.043Z,6.15
2023-02-10T13:41:43.280Z,5.55
2023-02-10T13:44:30.987Z,6.30
2023-02-10T13:47:08.448Z,5.30
2023-02-10T13:49:36.027Z,6.22
2023-02-10T13:52:18.668Z,6.40
2023-02-10T13:54:56.030Z,5.18
2023-02-10T13:57:33.083Z,6.72
2023-02-10T14:00:16.684Z,6.50
2023-02-10T14:02:44.286Z,6.13
2023-02-10T14:05:32.207Z,6.07
2023-02-10T14:07:59.268Z,7.03
2023-02-10T14:10:27.697Z,6.47
2023-02-10T14:12:56.764Z,6.63
2023-02-10T14:15:39.344Z,5.80
2023-02-10T14:18:28.491Z,5.88
2023-02-10T14:21:12.670Z,5.80
2023-02-10T14:23:50.352Z,7.05
2023-02-10T14:26:36.132Z,6.40
2023-02-10T14:29:04.333Z,6.30
2023-02-10T14:31:37.032Z,6.35
2023-02-10T14:36:32.808Z,5.85
2023-02-10T14:39:03.216Z,5.90
2023-02-10T14:41:32.857Z,6.45
2023-02-10T14:43:59.609Z,7.07
2023-02-10T14:46:29.507Z,5.57
2023-02-10T14:49:11.269Z,6.47
2023-02-10T14:51:56.598Z,6.32
2023-02-10T14:54:25.898Z,5.53
2023-02-10T14:56:56.926Z,5.70
2023-02-10T14:59:27.324Z,7.05
2023-02-10T15:02:15.616Z,5.60
2023-02-10T15:04:45.296Z,6.50
2023-02-10T15:07:19.363Z,6.38
2023-02-10T15:09:46.833Z,6.55
2023-02-10T15:12:19.826Z,6.80
2023-02-10T15:17:53.374Z,6.03
2023-02-10T15:20:30.340Z,6.57
2023-02-10T15:22:57.206Z,6.25
2023-02-10T15:25:26.712Z,6.00
2023-02-10T15:27:55.440Z,7.28
2023-02-10T15:30:24.844Z,5.53
2023-02-10T15:32:54.210Z,6.65
2023-02-10T15:35:21.507Z,5.60
2023-02-10T15:37:50.372Z,6.55
2023-02-10T15:40:28.073Z,6.20
2023-02-10T15:43:03.442Z,8.15
2023-02-10T15:45:30.473Z,6.00
2023-02-10T15:50:26.891Z,5.68
2023-02-10T15:52:53.629Z,6.72
2023-02-10T15:55:37.777Z,7.10
2023-02-10T15:58:04.858Z,9.93
2023-02-10T16:03:00.247Z,6.07
2023-02-10T16:05:27.923Z,6.07
2023-02-10T16:08:02.626Z,6.50
2023-02-10T16:10:29.224Z,6.18
2023-02-10T16:12:55.910Z,7.95
2023-02-10T16:15:25.803Z,6.15
2023-02-10T16:17:59.186Z,5.55
2023-02-10T16:20:29.000Z,6.07
2023-02-10T16:22:56.607Z,5.80
2023-02-10T16:25:25.652Z,6.05
2023-02-10T16:27:52.977Z,6.05
2023-02-10T16:30:28.720Z,5.68
2023-02-10T16:32:56.311Z,6.03
2023-02-10T16:35:23.841Z,6.15
2023-02-10T16:40:22.914Z,6.63
2023-02-10T16:42:50.267Z,7.88
2023-02-10T16:45:16.857Z,5.78
2023-02-10T16:47:43.489Z,5.55
2023-02-10T16:50:24.010Z,5.25
2023-02-10T16:52:50.788Z,5.85
2023-02-10T16:55:18.697Z,6.25
2023-02-10T16:57:46.046Z,5.82
2023-02-10T17:00:14.245Z,5.28
2023-02-10T17:02:41.656Z,5.25
2023-02-10T17:05:09.857Z,6.80
2023-02-10T17:07:37.104Z,6.63
2023-02-10T17:10:08.912Z,8.38
2023-02-10T17:12:35.559Z,8.95
2023-02-10T17:15:02.135Z,7.05
2023-02-10T17:17:28.739Z,6.53
2023-02-10T17:19:55.336Z,5.50
2023-02-10T17:22:21.943Z,6.60
2023-02-10T17:24:48.481Z,5.97
2023-02-10T17:27:15.118Z,4.55
2023-02-10T17:29:41.779Z,4.63
2023-02-10T17:32:09.162Z,5.18
2023-02-10T17:34:36.533Z,5.15
2023-02-10T17:37:06.460Z,4.75
2023-02-10T17:39:37.202Z,4.18
2023-02-10T17:42:04.295Z,3.90
2023-02-10T17:44:31.310Z,3.85
2023-02-10T17:46:58.426Z,4.22
2023-02-10T17:49:31.662Z,4.63
2023-02-10T17:51:59.573Z,4.28
2023-02-10T17:54:27.614Z,5.30
2023-02-10T17:56:54.500Z,4.15
2023-02-10T17:59:21.319Z,4.90
2023-02-10T18:01:48.245Z,4.03
2023-02-10T18:04:16.978Z,4.03
2023-02-10T18:06:43.918Z,3.75
2023-02-10T18:09:11.729Z,6.70
2023-02-10T18:11:39.261Z,4.60
2023-02-10T18:14:05.994Z,3.28
2023-02-10T18:16:32.786Z,4.05
2023-02-10T18:18:59.644Z,4.68
2023-02-10T18:21:26.612Z,4.47
2023-02-10T18:23:53.302Z,3.72
2023-02-10T18:26:20.183Z,4.25
2023-02-10T18:28:46.770Z,3.40
2023-02-10T18:31:17.216Z,2.25
2023-02-10T18:33:44.622Z,4.28
2023-02-10T18:36:13.977Z,3.92
2023-02-10T18:38:40.599Z,4.68
2023-02-10T18:41:07.187Z,3.78
2023-02-10T18:43:34.201Z,2.75
2023-02-10T18:46:01.943Z,4.07
2023-02-10T18:48:28.907Z,3.92
2023-02-10T18:50:55.526Z,3.92
2023-02-10T18:53:22.180Z,4.25
2023-02-10T18:55:53.052Z,4.25
2023-02-10T18:58:20.168Z,4.65
2023-02-10T19:00:48.137Z,3.60
2023-02-10T19:03:14.973Z,3.42
2023-02-10T19:05:41.795Z,3.50
2023-02-10T19:08:08.571Z,4.28
2023-02-10T19:10:36.340Z,4.47
2023-02-10T19:13:02.927Z,4.95
2023-02-10T19:15:29.504Z,2.72
2023-02-10T19:17:56.301Z,5.30
2023-02-10T19:20:22.853Z,3.88
2023-02-10T19:22:50.500Z,4.03
2023-02-10T19:25:17.909Z,4.15
2023-02-10T19:27:44.656Z,3.63
2023-02-10T19:30:11.604Z,5.00
2023-02-10T19:32:38.228Z,4.63
2023-02-10T19:35:05.362Z,5.10
2023-02-10T19:37:32.074Z,4.63
2023-02-10T19:39:58.752Z,4.00
2023-02-10T19:42:25.633Z,4.35
2023-02-10T19:44:52.326Z,5.28
2023-02-10T19:47:19.097Z,5.18
2023-02-10T19:49:45.683Z,3.08
2023-02-10T19:52:12.412Z,4.43
2023-02-10T19:54:39.072Z,5.05
2023-02-10T19:57:05.761Z,4.75
2023-02-10T19:59:32.371Z,4.10
2023-02-10T20:02:00.184Z,4.65
2023-02-10T20:04:26.818Z,5.55
2023-02-10T20:06:53.561Z,4.75
2023-02-10T20:09:20.217Z,5.95
2023-02-10T20:11:46.899Z,4.47
2023-02-10T20:14:13.978Z,5.47
2023-02-10T20:16:43.869Z,5.25
2023-02-10T20:19:14.983Z,4.55
2023-02-10T20:21:42.152Z,5.60
2023-02-10T20:24:09.618Z,6.07
2023-02-10T20:26:36.718Z,3.83
2023-02-10T20:29:04.842Z,5.15
2023-02-10T20:36:24.817Z,3.40
2023-02-10T20:38:51.353Z,4.40
2023-02-10T20:41:20.651Z,5.60
2023-02-10T20:43:49.332Z,4.53
2023-02-10T20:46:17.398Z,5.07
2023-02-10T20:48:46.718Z,4.70
2023-02-10T20:51:13.484Z,5.38
2023-02-10T20:53:42.645Z,4.45
2023-02-10T20:56:14.902Z,4.22
2023-02-10T20:58:42.170Z,3.70
2023-02-10T21:01:12.086Z,4.85
2023-02-10T21:03:39.981Z,4.40
2023-02-10T21:06:09.695Z,6.50
2023-02-10T21:08:36.918Z,5.18
2023-02-10T21:11:04.723Z,5.32
2023-02-10T21:13:31.437Z,6.25
2023-02-10T21:15:58.162Z,5.35
2023-02-10T21:18:24.881Z,5.10
2023-02-10T21:20:59.017Z,5.25
2023-02-10T21:23:26.499Z,3.97
2023-02-10T21:25:53.400Z,5.55
2023-02-10T21:28:20.385Z,4.65
2023-02-10T21:30:47.859Z,4.25
2023-02-10T21:33:15.820Z,4.30
2023-02-10T21:35:56.823Z,6.22
2023-02-10T21:38:24.476Z,4.22
2023-02-10T21:41:00.365Z,4.57
2023-02-10T21:43:27.027Z,4.30
2023-02-10T21:45:53.619Z,6.15
2023-02-10T21:48:20.257Z,4.82
2023-02-10T21:50:46.861Z,3.88
2023-02-10T21:53:13.553Z,5.20
2023-02-10T21:55:40.150Z,3.88
2023-02-10T21:58:06.935Z,4.25
2023-02-10T22:00:34.298Z,4.63
2023-02-10T22:03:00.980Z,3.72
2023-02-10T22:05:27.670Z,3.70
2023-02-10T22:07:55.381Z,5.50
2023-02-10T22:10:22.019Z,6.40
2023-02-10T22:12:48.675Z,4.07
2023-02-10T22:15:15.279Z,2.88
2023-02-10T22:17:41.880Z,5.45
2023-02-10T22:20:09.063Z,3.83
2023-02-10T22:22:35.692Z,4.78
2023-02-10T22:25:02.322Z,5.28
2023-02-10T22:27:29.029Z,3.80
2023-02-10T22:29:55.611Z,4.80
2023-02-10T22:32:23.532Z,5.47
2023-02-10T22:34:50.165Z,4.93
2023-02-10T22:37:16.766Z,4.28
2023-02-10T22:39:44.359Z,5.43
2023-02-10T22:42:10.995Z,5.32
2023-02-10T22:44:38.505Z,5.40
2023-02-10T22:47:05.326Z,5.28
2023-02-10T22:49:31.921Z,4.20
2023-02-10T22:51:58.551Z,5.10
2023-02-10T22:54:25.206Z,4.63
2023-02-10T22:56:51.883Z,4.45
2023-02-10T22:59:18.706Z,5.03
2023-02-10T23:01:46.037Z,3.00
2023-02-10T23:04:15.507Z,4.25
2023-02-10T23:06:42.649Z,5.03
2023-02-10T23:09:11.778Z,5.07
2023-02-10T23:11:43.674Z,4.78
2023-02-10T23:14:10.884Z,3.83
2023-02-10T23:16:38.133Z,4.95
2023-02-10T23:19:05.428Z,5.97
2023-02-10T23:21:33.054Z,6.03
2023-02-10T23:23:59.680Z,2.60
2023-02-10T23:26:29.231Z,6.72
2023-02-10T23:28:58.757Z,3.92
2023-02-10T23:31:26.080Z,5.50
2023-02-10T23:33:54.548Z,3.42
2023-02-10T23:38:48.776Z,4.13
2023-02-10T23:41:15.423Z,4.20
2023-02-10T23:43:42.019Z,4.40
2023-02-10T23:46:08.767Z,5.13
2023-02-10T23:48:35.896Z,4.03
2023-02-10T23:51:07.462Z,5.45
2023-02-10T23:53:34.463Z,4.70
2023-02-10T23:56:01.244Z,4.45
2023-02-10T23:58:27.846Z,5.20
